Seneca, Nebraska
Current Conditions -  °F | °C
As of 4:55 PM on Thursday 20 Nov 2014 (Local Time) from KTIF Reporting Station
Clear Clear  
Wind Chill: 36°   Ceiling: Unl
Heat Index: 40°   Visibility: 10mi
Dew Point: 22°   Wind: 6mph
Humidity: 49%   Direction: 140°SE
Pressure: 30.01"   Gusts: NA
Location:  42.04°N, 100.83°W
Report Text: KTIF 202255Z AUTO 14005KT 10SM CLR 05/M05 A3001 RMK AO2 T00461054
Loading
Personal Weather Stations






























Interactive Weather Map New forecast layout! Learn more

10-Day Weather Forecast

Advertisements
Track Severe Weather on mobile